Bookmark and Share
Track history (hours):
 

Shelby

More information available from US FCC via Universal Licensing System and Coast Guard Vessel Documentation Center.

Last reported at 2014-Apr-23 17:06 UTC. Time now 2014-Apr-24 22:03 UTC.
Position N 40°46' W 074°00'.

Length 22 m; draft 3.1 m.

Type: Tug. MMSI: 366939080.

NotesDate/timePositionNaut miles runAvg speedWind from/ knotsBaromVisibWave heightAir tempDewpointWater temp
2014-Apr-23 17:06N 40°46' W 074°00'0 0.4
2014-Apr-23 16:23N 40°46' W 074°00'0 0.0
2014-Apr-23 12:08N 40°46' W 074°00'0 0.0
2014-Apr-22 08:23N 40°46' W 074°00'0 0.0
2014-Apr-22 02:15N 40°46' W 074°00'0 0.0
2014-Apr-21 19:11N 40°46' W 073°60'0 0.1
2014-Apr-21 16:30N 40°46' W 074°00'1 0.5
2014-Apr-21 14:33N 40°45' W 074°01'5 5.3
2014-Apr-21 13:31N 40°41' W 074°05'0 0.1
2014-Apr-21 12:33N 40°40' W 074°05'5 4.7
2014-Apr-21 11:33N 40°44' W 074°01'2 1.9
2014-Apr-21 10:33N 40°46' W 073°60'0 0.4
2014-Apr-21 09:26N 40°46' W 074°00'0 0.1
2014-Apr-21 06:09N 40°46' W 073°60'0 0.1
2014-Apr-21 01:31N 40°46' W 074°00'0 0.0
2014-Apr-20 12:12N 40°46' W 073°60'0 0.0
2014-Apr-20 11:33N 40°46' W 073°60'0 0.0
2014-Apr-20 10:07N 40°46' W 073°60'1 1.5
2014-Apr-20 09:32N 40°46' W 074°01'1 0.7
2014-Apr-20 08:31N 40°46' W 074°00'0 0.0
2014-Apr-19 20:16N 40°46' W 074°00'0 0.0
2014-Apr-19 15:32N 40°46' W 074°00'0 0.0
2014-Apr-19 09:18N 40°46' W 074°00'0 0.0
2014-Apr-19 00:06N 40°46' W 073°60'0 0.4
2014-Apr-18 23:22N 40°46' W 074°00'0 0.0
2014-Apr-18 19:19N 40°46' W 074°00'0 0.0
2014-Apr-18 13:33N 40°46' W 073°60'0 0.0
2014-Apr-18 00:05N 40°46' W 074°00'0 0.0
2014-Apr-17 09:33N 40°46' W 074°00'0 0.1
2014-Apr-17 08:20N 40°46' W 074°00'0 0.1
2014-Apr-17 07:11N 40°46' W 074°00'1 2.2
2014-Apr-17 06:31N 40°45' W 074°01'5 4.9
2014-Apr-17 05:32N 40°41' W 074°05'0 0.1
2014-Apr-17 04:33N 40°41' W 074°05'1 0.7
2014-Apr-17 03:33N 40°40' W 074°04'17 5.3
2014-Apr-17 00:27N 40°56' W 073°55'8 2.7
2014-Apr-16 21:25N 41°04' W 073°53'21 7.4
2014-Apr-16 18:33N 40°43' W 074°01'4 3.6
2014-Apr-16 17:34N 40°41' W 074°05'0 0.0
2014-Apr-16 16:34N 40°41' W 074°05'0 0.0
2014-Apr-16 15:34N 40°41' W 074°05'2 2.5
2014-Apr-16 14:33N 40°39' W 074°07'0 0.1
2014-Apr-16 11:23N 40°39' W 074°07'2 1.9
2014-Apr-16 10:15N 40°41' W 074°05'0 0.0
2014-Apr-16 09:15N 40°41' W 074°05'0 0.0
2014-Apr-16 08:33N 40°41' W 074°05'0 0.0
2014-Apr-16 07:33N 40°41' W 074°05'0 0.0
2014-Apr-16 06:33N 40°41' W 074°05'0 0.0
2014-Apr-16 05:33N 40°41' W 074°05'0 0.0
2014-Apr-16 04:27N 40°41' W 074°05'0 0.0
2014-Apr-16 03:33N 40°41' W 074°05'0 0.0
2014-Apr-16 02:33N 40°41' W 074°05'0 0.0
2014-Apr-16 01:27N 40°41' W 074°05'0 0.4
2014-Apr-16 00:33N 40°40' W 074°04'11 8.4
2014-Apr-15 23:12N 40°33' W 074°15'11 0.2
2014-Apr-13 22:30N 40°41' W 074°05'0 0.0
2014-Apr-13 21:33N 40°41' W 074°05'0 0.0
2014-Apr-13 20:30N 40°41' W 074°05'0 0.0
2014-Apr-13 19:33N 40°41' W 074°05'0 0.0
2014-Apr-13 18:33N 40°41' W 074°05'0 0.0
2014-Apr-13 17:33N 40°41' W 074°05'  

Dump ship's entire track history

sailing weather and tide predictions

Shelby — WCV6157 — position and weather